Time;durP1;ratioP1;P1;durP2;ratioP2;P2;SDS_P1;SDS_P2;PMS_P1;PMS_P2;Temp;Humidity;BMP_temperature;BMP_pressure;BME280_temperature;BME280_humidity;BME280_pressure;Samples;Min_cycle;Max_cycle;Signal;HPM_P1;HPM_P2
2022/07/24 00:00:56;;;;;;;6.20;3.53;;;14.40;99.90;;;;;;5001821;28;20050;-44
2022/07/24 00:03:22;;;;;;;7.13;3.10;;;14.40;99.90;;;;;;5001884;28;20049;-46
2022/07/24 00:05:49;;;;;;;5.25;3.20;;;14.60;99.90;;;;;;5001374;28;20107;-44
2022/07/24 00:08:15;;;;;;;4.40;3.10;;;14.50;99.90;;;;;;5001895;28;20046;-49
2022/07/24 00:10:41;;;;;;;7.45;3.35;;;14.40;99.90;;;;;;5001270;28;20041;-43
2022/07/24 00:13:08;;;;;;;6.25;3.47;;;15.20;99.90;;;;;;5001824;28;20050;-45
2022/07/24 00:15:34;;;;;;;7.88;3.60;;;15.40;99.90;;;;;;5000477;28;20129;-43
2022/07/24 00:18:00;;;;;;;5.32;3.20;;;14.50;99.90;;;;;;5012594;28;21379;-45
2022/07/24 00:20:27;;;;;;;7.38;3.58;;;14.30;99.90;;;;;;5000482;28;20230;-44
2022/07/24 00:22:53;;;;;;;7.35;3.40;;;14.30;99.90;;;;;;5000510;28;20033;-45
2022/07/24 00:25:18;;;;;;;8.45;4.20;;;14.40;99.90;;;;;;4999861;28;20454;-45
2022/07/24 00:27:46;;;;;;;9.05;3.72;;;14.30;99.90;;;;;;5007099;28;20077;-44
2022/07/24 00:30:12;;;;;;;6.53;3.83;;;15.10;99.90;;;;;;4999459;28;20050;-43
2022/07/24 00:32:38;;;;;;;5.63;3.35;;;14.30;99.90;;;;;;4999409;28;20046;-43
2022/07/24 00:35:04;;;;;;;7.63;3.70;;;14.30;99.90;;;;;;5000147;28;20392;-43
2022/07/24 00:37:30;;;;;;;7.30;3.60;;;14.20;99.90;;;;;;4999573;28;20426;-43
2022/07/24 00:39:56;;;;;;;6.38;4.00;;;15.00;99.90;;;;;;4999649;28;20041;-45
2022/07/24 00:42:24;;;;;;;6.93;3.72;;;16.00;99.90;;;;;;4999601;28;20638;-44
2022/07/24 00:44:49;;;;;;;6.55;4.03;;;14.00;99.90;;;;;;4999334;28;20674;-46
2022/07/24 00:47:15;;;;;;;6.32;3.63;;;14.10;99.90;;;;;;4998292;28;20052;-44
2022/07/24 00:49:41;;;;;;;7.88;3.70;;;15.60;99.90;;;;;;4998988;28;20042;-45
2022/07/24 00:52:06;;;;;;;8.93;3.70;;;14.10;99.90;;;;;;4999393;28;20045;-45
2022/07/24 00:54:32;;;;;;;5.93;3.80;;;14.30;99.90;;;;;;5005320;28;20077;-44
2022/07/24 00:56:57;;;;;;;5.47;3.97;;;14.00;99.90;;;;;;5004937;28;20497;-46
2022/07/24 00:59:23;;;;;;;6.22;3.90;;;15.30;99.90;;;;;;5006995;28;20183;-45
2022/07/24 01:01:50;;;;;;;7.13;3.63;;;15.70;99.90;;;;;;4999345;28;20033;-44
2022/07/24 01:04:16;;;;;;;7.22;4.03;;;14.80;99.90;;;;;;4999115;28;20042;-44
2022/07/24 01:06:46;;;;;;;5.95;3.95;;;16.40;99.90;;;;;;4992386;28;20704;-45
2022/07/24 01:09:12;;;;;;;6.97;4.07;;;16.50;99.90;;;;;;4999653;28;20078;-45
2022/07/24 01:11:39;;;;;;;6.43;4.32;;;14.40;99.90;;;;;;4999926;28;20051;-43
2022/07/24 01:14:06;;;;;;;4.85;4.00;;;14.40;99.90;;;;;;4999466;28;20050;-44
2022/07/24 01:16:34;;;;;;;7.40;4.35;;;14.50;99.90;;;;;;4999547;28;20068;-44
2022/07/24 01:19:00;;;;;;;6.57;4.28;;;14.40;99.90;;;;;;4989032;28;20057;-44
2022/07/24 01:21:25;;;;;;;6.28;4.55;;;14.40;99.90;;;;;;4999425;28;20095;-44
2022/07/24 01:23:51;;;;;;;6.40;4.05;;;14.20;99.90;;;;;;4999527;28;20092;-44
2022/07/24 01:26:17;;;;;;;7.95;4.13;;;14.40;99.90;;;;;;4999327;28;20049;-45
2022/07/24 01:28:42;;;;;;;6.22;4.40;;;14.30;99.90;;;;;;5002646;28;20267;-45
2022/07/24 01:31:12;;;;;;;11.27;4.55;;;14.30;99.90;;;;;;5003051;28;20049;-45
2022/07/24 01:33:37;;;;;;;7.63;4.80;;;14.30;99.90;;;;;;4985375;28;20093;-44
2022/07/24 01:36:03;;;;;;;7.25;4.50;;;14.60;99.90;;;;;;5007369;28;20129;-45
2022/07/24 01:38:31;;;;;;;6.43;4.50;;;14.30;99.90;;;;;;5003245;28;20536;-43
2022/07/24 01:40:56;;;;;;;6.55;4.40;;;14.40;99.90;;;;;;5002668;28;20046;-46
2022/07/24 01:43:22;;;;;;;7.13;4.70;;;15.40;99.90;;;;;;5006746;28;20403;-44
2022/07/24 01:45:48;;;;;;;7.85;4.80;;;15.30;99.90;;;;;;5002816;28;20069;-43
2022/07/24 01:48:14;;;;;;;7.00;5.00;;;15.00;99.90;;;;;;5006225;28;20068;-47
2022/07/24 01:50:39;;;;;;;7.18;5.00;;;14.10;99.90;;;;;;5002392;28;20434;-42
2022/07/24 01:53:05;;;;;;;8.57;5.00;;;14.30;99.90;;;;;;5002514;28;20128;-44
2022/07/24 01:55:31;;;;;;;7.43;5.10;;;16.00;99.90;;;;;;5002421;28;20376;-43
2022/07/24 01:57:57;;;;;;;9.75;5.63;;;14.20;99.90;;;;;;5002619;28;20045;-53
2022/07/24 02:00:24;;;;;;;7.35;4.75;;;14.20;99.90;;;;;;5008244;28;20081;-43
2022/07/24 02:02:50;;;;;;;7.90;5.72;;;14.10;99.90;;;;;;5009864;28;20648;-43
2022/07/24 02:05:18;;;;;;;9.65;6.38;;;14.80;99.90;;;;;;5008612;28;20243;-43
2022/07/24 02:07:44;;;;;;;7.57;5.38;;;14.30;99.90;;;;;;5002325;28;20037;-43
2022/07/24 02:10:12;;;;;;;10.07;5.70;;;14.20;99.90;;;;;;5002699;28;20112;-44
2022/07/24 02:12:40;;;;;;;6.95;5.18;;;15.30;99.90;;;;;;5007686;28;20045;-42
2022/07/24 02:15:06;;;;;;;7.38;5.40;;;14.60;99.90;;;;;;5010848;28;20045;-43
2022/07/24 02:17:32;;;;;;;6.82;5.00;;;14.20;99.90;;;;;;5002181;28;20746;-46
2022/07/24 02:19:58;;;;;;;11.23;5.70;;;15.00;99.90;;;;;;5005218;28;20056;-45
2022/07/24 02:22:24;;;;;;;8.50;5.55;;;14.10;99.90;;;;;;5002493;28;20081;-45
2022/07/24 02:24:49;;;;;;;7.07;5.70;;;14.10;99.90;;;;;;5002419;28;20517;-47
2022/07/24 02:27:15;;;;;;;10.13;5.80;;;14.30;99.90;;;;;;5000470;28;20129;-44
2022/07/24 02:29:41;;;;;;;6.95;5.70;;;14.10;99.90;;;;;;5001186;28;20058;-48
2022/07/24 02:32:07;;;;;;;9.10;6.80;;;14.00;99.90;;;;;;5010283;28;20046;-45
2022/07/24 02:34:33;;;;;;;13.43;6.70;;;13.80;99.90;;;;;;5008747;28;20045;-44
2022/07/24 02:36:58;;;;;;;9.18;6.80;;;13.80;99.90;;;;;;5015535;28;20119;-43
2022/07/24 02:39:24;;;;;;;10.23;7.80;;;14.50;99.90;;;;;;5002105;28;20049;-45
2022/07/24 02:41:50;;;;;;;10.93;7.30;;;15.60;99.90;;;;;;5008610;28;20042;-44
2022/07/24 02:44:16;;;;;;;9.65;7.68;;;14.30;99.90;;;;;;5002339;28;20046;-45
2022/07/24 02:46:41;;;;;;;9.35;7.43;;;13.80;99.90;;;;;;5001855;28;20596;-44
2022/07/24 02:49:09;;;;;;;9.80;7.35;;;15.60;99.90;;;;;;5011598;28;20077;-44
2022/07/24 02:51:35;;;;;;;10.95;7.80;;;13.80;99.90;;;;;;5003813;28;20038;-46
2022/07/24 02:54:00;;;;;;;10.90;7.47;;;14.00;99.90;;;;;;5002260;28;20092;-43
2022/07/24 02:56:28;;;;;;;11.32;8.32;;;15.40;99.90;;;;;;5003427;28;20388;-43
2022/07/24 02:58:53;;;;;;;9.70;7.93;;;16.00;99.90;;;;;;5001587;28;20045;-43
2022/07/24 03:01:19;;;;;;;11.25;8.05;;;15.20;99.90;;;;;;5011018;28;20045;-45
2022/07/24 03:03:46;;;;;;;11.48;8.32;;;14.20;99.90;;;;;;5001912;28;20073;-48
2022/07/24 03:06:12;;;;;;;9.98;8.15;;;15.30;99.90;;;;;;5001597;28;20053;-43
2022/07/24 03:08:38;;;;;;;14.20;8.70;;;14.40;99.90;;;;;;5001322;28;20068;-47
2022/07/24 03:11:03;;;;;;;10.52;8.65;;;15.10;99.90;;;;;;4983217;28;20157;-45
2022/07/24 03:13:29;;;;;;;12.30;9.10;;;14.20;99.90;;;;;;5004388;28;20403;-45
2022/07/24 03:15:55;;;;;;;10.15;9.05;;;14.10;99.90;;;;;;5001620;28;20049;-44
2022/07/24 03:18:24;;;;;;;11.02;8.60;;;14.20;99.90;;;;;;5001057;28;20577;-43
2022/07/24 03:20:50;;;;;;;12.82;8.68;;;14.70;99.90;;;;;;5000674;28;20629;-43
2022/07/24 03:23:17;;;;;;;10.80;8.90;;;14.40;99.90;;;;;;5001378;28;20058;-46
2022/07/24 03:25:43;;;;;;;11.57;9.45;;;14.80;99.90;;;;;;5000998;28;20042;-43
2022/07/24 03:28:09;;;;;;;10.48;9.30;;;14.40;99.90;;;;;;5001945;28;20049;-48
2022/07/24 03:30:36;;;;;;;11.80;9.30;;;15.70;99.90;;;;;;5001149;28;20061;-45
2022/07/24 03:33:01;;;;;;;10.80;9.10;;;14.40;99.90;;;;;;5007051;28;20045;-46
2022/07/24 03:35:27;;;;;;;11.00;9.25;;;14.90;99.90;;;;;;5006849;28;20045;-45
2022/07/24 03:37:54;;;;;;;11.65;8.82;;;14.40;99.90;;;;;;4999479;28;20036;-44
2022/07/24 03:40:20;;;;;;;11.10;8.98;;;15.70;99.90;;;;;;5001091;28;20050;-43
2022/07/24 03:42:46;;;;;;;10.80;9.02;;;14.80;99.90;;;;;;5001173;28;20510;-43
2022/07/24 03:45:11;;;;;;;12.32;9.00;;;15.00;99.90;;;;;;5001003;28;20397;-47
2022/07/24 03:47:37;;;;;;;10.75;8.32;;;14.30;99.90;;;;;;4983156;28;20146;-47
2022/07/24 03:50:04;;;;;;;11.05;9.27;;;14.40;99.90;;;;;;5000416;28;20053;-44
2022/07/24 03:52:29;;;;;;;10.63;8.27;;;14.30;99.90;;;;;;5004815;28;20048;-46
2022/07/24 03:54:55;;;;;;;10.32;8.10;;;15.60;99.90;;;;;;4999933;28;20038;-48
2022/07/24 03:57:21;;;;;;;11.00;8.63;;;14.40;99.90;;;;;;5002801;28;20123;-45
2022/07/24 03:59:47;;;;;;;11.93;8.75;;;14.40;99.90;;;;;;5005737;28;20803;-45
2022/07/24 04:02:15;;;;;;;11.38;8.57;;;14.50;99.90;;;;;;5010797;28;20080;-46
2022/07/24 04:04:40;;;;;;;11.70;9.02;;;14.60;99.90;;;;;;5000827;28;20054;-48
2022/07/24 04:07:06;;;;;;;11.07;9.27;;;16.40;99.90;;;;;;5000876;28;20415;-47
2022/07/24 04:09:34;;;;;;;10.25;8.57;;;14.50;99.90;;;;;;5000900;28;20041;-46
2022/07/24 04:12:00;;;;;;;10.63;8.63;;;14.60;99.90;;;;;;5002304;28;20096;-48
2022/07/24 04:14:25;;;;;;;10.93;8.30;;;15.50;99.90;;;;;;5002125;28;20229;-44
2022/07/24 04:16:51;;;;;;;12.23;8.10;;;14.50;99.90;;;;;;4985954;28;20038;-48
2022/07/24 04:19:17;;;;;;;11.85;8.32;;;15.00;99.90;;;;;;5005781;28;20473;-47
2022/07/24 04:21:42;;;;;;;9.68;7.97;;;14.80;99.90;;;;;;4997742;28;20034;-48
2022/07/24 04:24:08;;;;;;;11.20;8.95;;;15.30;99.90;;;;;;5004062;28;20042;-48
2022/07/24 04:26:35;;;;;;;10.50;8.60;;;14.50;99.90;;;;;;5000233;28;20072;-48
2022/07/24 04:29:01;;;;;;;10.90;8.40;;;15.20;99.90;;;;;;4999963;28;20065;-47
2022/07/24 04:31:27;;;;;;;11.35;8.38;;;15.40;99.90;;;;;;5000010;28;20045;-47
2022/07/24 04:33:54;;;;;;;14.88;9.20;;;14.50;99.90;;;;;;5000588;28;20450;-47
2022/07/24 04:36:20;;;;;;;10.05;8.55;;;14.40;99.90;;;;;;5000065;28;20050;-48
2022/07/24 04:38:46;;;;;;;12.30;8.88;;;14.40;99.90;;;;;;5000093;28;20046;-45
2022/07/24 04:41:17;;;;;;;12.38;8.93;;;15.90;99.90;;;;;;5000288;28;20052;-48
2022/07/24 04:43:43;;;;;;;9.60;8.00;;;14.60;99.90;;;;;;5000193;28;20140;-43
2022/07/24 04:46:08;;;;;;;12.80;9.45;;;14.80;99.90;;;;;;5000021;28;20284;-43
2022/07/24 04:48:35;;;;;;;10.68;8.70;;;14.60;99.90;;;;;;5002153;28;20045;-46
2022/07/24 04:51:00;;;;;;;10.10;8.77;;;15.40;99.90;;;;;;5001210;28;20092;-44
2022/07/24 04:53:26;;;;;;;11.18;9.32;;;15.80;99.90;;;;;;5005548;28;20176;-44
2022/07/24 04:55:52;;;;;;;12.23;8.85;;;14.80;99.90;;;;;;4998710;28;20057;-46
2022/07/24 04:58:18;;;;;;;13.93;8.80;;;14.90;99.90;;;;;;5000231;28;20042;-43
2022/07/24 05:00:44;;;;;;;13.82;9.35;;;15.00;99.90;;;;;;5000262;28;20095;-46
2022/07/24 05:03:09;;;;;;;11.50;9.32;;;15.40;99.90;;;;;;5001690;28;20045;-44
2022/07/24 05:05:35;;;;;;;12.18;8.88;;;15.10;99.90;;;;;;5014775;28;20108;-43
2022/07/24 05:08:00;;;;;;;10.02;7.97;;;15.30;99.90;;;;;;5011126;28;20060;-44
2022/07/24 05:10:26;;;;;;;11.57;8.70;;;17.40;99.90;;;;;;5012436;28;20046;-48
2022/07/24 05:12:52;;;;;;;12.98;8.70;;;15.20;99.90;;;;;;5009728;28;20132;-46
2022/07/24 05:15:18;;;;;;;11.60;8.30;;;15.10;99.90;;;;;;5000896;28;20046;-44
2022/07/24 05:17:43;;;;;;;13.40;8.93;;;15.40;99.90;;;;;;4999825;28;20046;-42
2022/07/24 05:20:10;;;;;;;11.55;8.35;;;15.50;99.90;;;;;;4999842;28;20074;-45
2022/07/24 05:22:35;;;;;;;10.68;8.13;;;15.50;99.90;;;;;;5000132;28;20042;-47
2022/07/24 05:25:04;;;;;;;12.05;9.10;;;15.60;99.90;;;;;;5000111;28;20057;-45
2022/07/24 05:27:30;;;;;;;13.32;8.50;;;15.70;99.90;;;;;;5006463;28;20050;-45
2022/07/24 05:29:55;;;;;;;10.60;8.20;;;15.90;99.90;;;;;;4999556;28;20108;-43
2022/07/24 05:32:21;;;;;;;12.20;8.55;;;15.90;99.90;;;;;;5001290;28;20048;-43
2022/07/24 05:34:47;;;;;;;10.60;8.32;;;15.90;99.90;;;;;;5007897;28;20045;-46
2022/07/24 05:37:12;;;;;;;11.95;8.90;;;17.00;99.90;;;;;;4999533;28;20053;-44
2022/07/24 05:39:38;;;;;;;10.45;8.15;;;16.10;99.90;;;;;;4998354;28;20372;-44
2022/07/24 05:42:04;;;;;;;9.90;8.40;;;17.20;99.90;;;;;;4999328;28;20038;-47
2022/07/24 05:44:30;;;;;;;12.55;8.90;;;16.20;99.90;;;;;;4999289;28;20130;-44
2022/07/24 05:46:57;;;;;;;11.40;8.50;;;17.20;99.90;;;;;;4999709;28;20037;-45
2022/07/24 05:49:23;;;;;;;10.38;8.30;;;16.30;99.90;;;;;;5002721;28;20042;-44
2022/07/24 05:51:49;;;;;;;11.05;8.43;;;17.00;99.90;;;;;;4999096;28;20073;-49
2022/07/24 05:54:14;;;;;;;10.98;8.40;;;16.80;99.90;;;;;;4999659;28;20046;-47
2022/07/24 05:56:40;;;;;;;10.55;8.27;;;18.80;99.90;;;;;;4996977;28;20041;-43
2022/07/24 05:59:06;;;;;;;10.70;8.23;;;17.00;99.90;;;;;;4975074;28;20089;-48
2022/07/24 06:01:32;;;;;;;12.30;7.82;;;17.10;99.90;;;;;;5006470;28;21564;-43
2022/07/24 06:03:58;;;;;;;11.27;8.15;;;19.40;99.90;;;;;;5007529;28;20053;-43
2022/07/24 06:06:24;;;;;;;11.15;8.63;;;17.60;99.90;;;;;;4999174;28;20050;-44
2022/07/24 06:08:54;;;;;;;14.75;9.07;;;18.60;99.90;;;;;;4998949;28;20306;-44
2022/07/24 06:11:20;;;;;;;9.65;8.32;;;17.40;99.90;;;;;;4998742;28;20129;-44
2022/07/24 06:13:45;;;;;;;14.70;9.05;;;17.50;99.90;;;;;;5002907;28;20129;-44
2022/07/24 06:16:11;;;;;;;12.52;9.13;;;17.60;99.90;;;;;;4989346;28;20120;-44
2022/07/24 06:18:37;;;;;;;11.48;9.13;;;17.90;99.90;;;;;;5002640;28;20197;-46
2022/07/24 06:21:03;;;;;;;13.85;9.43;;;18.00;99.90;;;;;;5002525;28;20042;-46
2022/07/24 06:23:32;;;;;;;11.00;9.43;;;18.10;99.90;;;;;;5008455;28;20071;-46
2022/07/24 06:25:58;;;;;;;12.30;9.45;;;18.30;99.90;;;;;;5013120;28;20045;-47
2022/07/24 06:28:24;;;;;;;10.90;9.43;;;19.10;99.90;;;;;;5002293;28;20143;-47
2022/07/24 06:30:50;;;;;;;16.45;9.63;;;19.40;99.90;;;;;;5002391;28;20502;-48
2022/07/24 06:33:16;;;;;;;12.57;10.23;;;19.70;99.90;;;;;;5002676;28;20053;-44
2022/07/24 06:35:41;;;;;;;13.50;10.48;;;19.30;99.90;;;;;;5002587;28;20490;-44
2022/07/24 06:38:09;;;;;;;17.05;10.00;;;20.50;98.90;;;;;;5006563;28;20045;-43
2022/07/24 06:40:36;;;;;;;16.08;10.93;;;19.50;96.70;;;;;;5020757;28;20088;-44
2022/07/24 06:43:03;;;;;;;14.55;11.68;;;19.70;95.20;;;;;;5003239;28;20282;-43
2022/07/24 06:45:32;;;;;;;12.95;11.13;;;19.90;94.70;;;;;;5002515;28;20053;-43
2022/07/24 06:48:00;;;;;;;17.13;11.50;;;20.00;94.30;;;;;;4990143;28;20046;-48
2022/07/24 06:50:25;;;;;;;16.35;12.40;;;19.80;92.80;;;;;;5005642;28;20073;-44
2022/07/24 06:52:51;;;;;;;15.88;11.90;;;19.90;72.30;;;;;;5002021;28;20193;-43
2022/07/24 06:55:17;;;;;;;14.88;10.60;;;20.20;75.20;;;;;;5002244;28;20153;-45
2022/07/24 06:57:42;;;;;;;15.25;11.55;;;20.20;73.00;;;;;;5001609;28;20045;-45
2022/07/24 07:00:11;;;;;;;15.07;11.50;;;20.40;38.60;;;;;;5001030;28;20041;-43
2022/07/24 07:02:37;;;;;;;15.35;11.48;;;20.70;23.90;;;;;;4983392;28;20129;-46
2022/07/24 07:05:04;;;;;;;12.63;10.98;;;21.20;17.70;;;;;;5001026;28;20065;-44
2022/07/24 07:07:30;;;;;;;14.93;10.93;;;22.20;1.00;;;;;;5001709;28;20046;-44
2022/07/24 07:09:56;;;;;;;13.70;10.30;;;22.90;1.00;;;;;;5003832;28;20852;-44
2022/07/24 07:12:22;;;;;;;13.65;10.35;;;23.40;1.00;;;;;;5001555;28;20092;-46
2022/07/24 07:14:49;;;;;;;13.15;9.68;;;24.20;99.90;;;;;;5001237;28;20600;-47
2022/07/24 07:17:15;;;;;;;10.02;8.90;;;25.00;99.90;;;;;;5006204;28;20041;-48
2022/07/24 07:19:42;;;;;;;13.00;9.30;;;26.20;82.90;;;;;;5004757;28;20568;-44
2022/07/24 07:22:09;;;;;;;10.00;7.75;;;26.90;99.90;;;;;;5000868;28;20033;-47
2022/07/24 07:24:34;;;;;;;9.57;7.53;;;27.70;99.90;;;;;;5000348;28;20042;-45
2022/07/24 07:27:00;;;;;;;9.52;7.38;;;28.40;99.90;;;;;;5003251;28;20502;-46
2022/07/24 07:29:26;;;;;;;10.73;7.63;;;27.30;99.90;;;;;;5008201;28;20096;-45
2022/07/24 07:31:52;;;;;;;11.57;6.90;;;26.50;99.90;;;;;;4999439;28;20136;-48
2022/07/24 07:34:17;;;;;;;9.07;6.40;;;25.40;99.90;;;;;;5000997;28;20339;-46
2022/07/24 07:36:45;;;;;;;12.82;7.10;;;24.60;99.90;;;;;;5004186;28;20545;-44
2022/07/24 07:39:11;;;;;;;8.82;6.40;;;23.90;99.90;;;;;;5009451;28;20498;-44
2022/07/24 07:41:36;;;;;;;10.60;6.72;;;23.30;1.00;;;;;;5008026;28;20083;-48
2022/07/24 07:44:03;;;;;;;10.40;5.75;;;23.00;1.00;;;;;;5007600;28;20137;-44
2022/07/24 07:46:29;;;;;;;10.75;6.00;;;22.80;93.10;;;;;;5000936;28;20045;-43
2022/07/24 07:48:55;;;;;;;9.88;6.20;;;22.50;1.00;;;;;;4999884;28;20042;-44
2022/07/24 07:51:21;;;;;;;10.27;6.95;;;22.40;99.90;;;;;;5000835;28;20072;-45
2022/07/24 07:53:47;;;;;;;7.20;5.93;;;22.10;99.90;;;;;;4984699;28;20522;-44
2022/07/24 07:56:14;;;;;;;7.57;5.53;;;22.10;84.90;;;;;;5003016;28;20042;-45
2022/07/24 07:58:39;;;;;;;12.52;5.85;;;22.20;99.90;;;;;;4983695;28;20557;-44
2022/07/24 08:01:05;;;;;;;9.52;5.82;;;22.50;99.90;;;;;;5007615;28;20045;-44
2022/07/24 08:03:30;;;;;;;9.05;5.30;;;23.00;99.90;;;;;;5000809;28;20054;-45
2022/07/24 08:05:56;;;;;;;11.68;5.85;;;23.70;99.90;;;;;;5000639;28;20053;-48
2022/07/24 08:08:22;;;;;;;10.70;5.07;;;24.00;1.00;;;;;;5003410;28;20350;-45
2022/07/24 08:10:48;;;;;;;10.82;4.65;;;25.20;99.90;;;;;;5016693;28;20045;-45
2022/07/24 08:13:19;;;;;;;7.05;4.18;;;23.70;99.90;;;;;;5002240;28;20076;-44
2022/07/24 08:15:45;;;;;;;9.05;5.15;;;23.50;79.40;;;;;;5002321;28;20049;-46
2022/07/24 08:18:10;;;;;;;7.65;4.90;;;23.60;99.90;;;;;;5006959;28;20092;-45
2022/07/24 08:20:36;;;;;;;7.90;4.10;;;23.70;7.90;;;;;;5000308;28;20046;-46
2022/07/24 08:23:02;;;;;;;9.15;4.32;;;23.50;26.90;;;;;;5000181;28;20048;-47
2022/07/24 08:25:28;;;;;;;7.53;4.10;;;23.70;99.90;;;;;;5000019;28;20984;-43
2022/07/24 08:27:54;;;;;;;6.15;3.92;;;24.00;96.50;;;;;;4999830;28;20141;-44
2022/07/24 08:30:21;;;;;;;7.38;4.30;;;23.70;99.90;;;;;;4999254;28;20073;-44
2022/07/24 08:32:47;;;;;;;10.68;4.75;;;23.40;99.90;;;;;;5004906;28;20403;-49
2022/07/24 08:35:14;;;;;;;9.88;5.18;;;23.30;99.90;;;;;;4999409;28;20050;-45
2022/07/24 08:37:41;;;;;;;7.20;4.63;;;23.30;99.90;;;;;;4998432;28;20041;-43
2022/07/24 08:40:08;;;;;;;10.18;4.65;;;23.70;99.90;;;;;;4999414;28;20169;-43
2022/07/24 08:42:35;;;;;;;8.75;4.72;;;23.40;99.90;;;;;;5000192;28;20125;-45
2022/07/24 08:45:04;;;;;;;8.38;3.90;;;23.60;99.90;;;;;;4998666;28;20057;-43
2022/07/24 08:47:32;;;;;;;8.95;4.20;;;23.80;99.90;;;;;;4996789;28;20133;-43
2022/07/24 08:49:59;;;;;;;8.65;4.20;;;23.70;99.90;;;;;;4997945;28;20048;-47
2022/07/24 08:52:27;;;;;;;5.85;3.42;;;23.60;99.90;;;;;;4998931;28;20077;-49
2022/07/24 08:54:53;;;;;;;8.30;4.32;;;23.70;49.70;;;;;;4998552;28;20053;-45
2022/07/24 08:57:19;;;;;;;7.80;3.38;;;24.40;1.00;;;;;;5000580;28;20046;-46
2022/07/24 08:59:45;;;;;;;9.15;3.53;;;23.60;1.00;;;;;;5007757;28;20112;-44
2022/07/24 09:02:11;;;;;;;5.55;3.13;;;23.60;1.00;;;;;;4997956;28;20161;-48
2022/07/24 09:04:43;;;;;;;6.90;3.60;;;23.30;1.00;;;;;;4998266;28;20116;-48
2022/07/24 09:07:11;;;;;;;;;;;23.60;83.10;;;;;;4979198;28;20849;-44
2022/07/24 09:09:38;;;;;;;5.57;3.25;;;23.40;1.00;;;;;;4998312;28;19932;-47
2022/07/24 09:12:15;;;;;;;6.85;3.00;;;23.30;1.00;;;;;;4992251;28;20047;-46
2022/07/24 09:14:45;;;;;;;11.13;3.20;;;24.50;99.90;;;;;;4993315;28;20433;-45
2022/07/24 09:17:15;;;;;;;8.77;3.30;;;25.20;31.20;;;;;;5002239;28;20046;-46
2022/07/24 09:19:56;;;;;;;5.88;3.05;;;25.70;99.90;;;;;;4999363;28;20046;-45
2022/07/24 09:22:34;;;;;;;6.78;2.50;;;26.50;98.60;;;;;;4999384;28;20046;-45
2022/07/24 09:25:21;;;;;;;4.30;2.42;;;26.70;1.00;;;;;;4991819;28;20667;-49
2022/07/24 09:27:54;;;;;;;4.90;2.38;;;26.50;99.90;;;;;;4998206;28;20042;-44
2022/07/24 09:30:42;;;;;;;6.50;2.47;;;26.20;99.90;;;;;;4999348;28;20049;-45
2022/07/24 09:33:11;;;;;;;4.97;2.63;;;25.70;17.90;;;;;;4998939;28;20050;-47
2022/07/24 09:35:40;;;;;;;5.18;2.33;;;25.60;99.90;;;;;;4999069;28;20057;-46
2022/07/24 09:38:11;;;;;;;5.15;2.85;;;25.60;58.80;;;;;;4999317;28;20049;-44
2022/07/24 09:40:42;;;;;;;6.85;2.30;;;25.80;49.20;;;;;;4996135;28;20041;-45
2022/07/24 09:43:31;;;;;;;5.18;2.70;;;25.80;94.20;;;;;;4995643;28;20107;-48
2022/07/24 09:46:02;;;;;;;6.10;2.50;;;25.70;28.10;;;;;;4998400;28;20046;-46
2022/07/24 09:48:38;;;;;;;6.03;2.30;;;25.60;78.30;;;;;;5000694;28;20050;-46
2022/07/24 09:51:09;;;;;;;5.82;2.35;;;25.90;1.00;;;;;;5002296;28;20886;-44
2022/07/24 09:53:34;;;;;;;9.20;2.72;;;26.00;70.10;;;;;;5001761;28;20983;-47
2022/07/24 09:56:06;;;;;;;5.30;2.47;;;26.10;1.00;;;;;;5009994;28;20050;-45
2022/07/24 09:58:34;;;;;;;;;;;25.70;99.90;;;;;;5002437;28;20038;-46
2022/07/24 10:01:01;;;;;;;6.47;2.35;;;25.60;1.00;;;;;;4982663;28;19925;-45
2022/07/24 10:03:31;;;;;;;5.13;2.13;;;25.60;1.00;;;;;;5001574;28;20505;-46
2022/07/24 10:06:00;;;;;;;6.78;2.03;;;25.20;1.00;;;;;;5002244;28;20057;-46
2022/07/24 10:08:27;;;;;;;5.53;2.53;;;25.10;1.00;;;;;;5008743;28;20053;-44
2022/07/24 10:10:55;;;;;;;6.65;2.42;;;25.10;1.00;;;;;;5002960;28;20042;-44
2022/07/24 10:13:24;;;;;;;5.20;2.40;;;24.80;1.00;;;;;;5003469;28;20235;-44
2022/07/24 10:16:11;;;;;;;5.47;2.42;;;24.70;1.00;;;;;;5003541;28;20052;-45
2022/07/24 10:18:47;;;;;;;5.85;2.33;;;24.60;1.00;;;;;;4987793;28;20042;-49
2022/07/24 10:21:17;;;;;;;4.78;2.22;;;24.60;1.00;;;;;;5003073;28;20041;-45
2022/07/24 10:24:06;;;;;;;6.63;2.60;;;25.00;1.00;;;;;;5015234;28;20904;-48
2022/07/24 10:26:48;;;;;;;7.70;2.40;;;25.20;1.00;;;;;;5003404;28;20052;-46
2022/07/24 10:29:14;;;;;;;6.22;3.55;;;26.10;1.00;;;;;;5003850;28;20077;-48
2022/07/24 10:31:54;;;;;;;5.35;2.38;;;26.20;1.00;;;;;;5003154;28;20529;-46
2022/07/24 10:34:46;;;;;;;6.00;2.00;;;26.20;1.00;;;;;;4987160;28;20053;-50
2022/07/24 10:37:30;;;;;;;5.25;2.30;;;25.90;1.00;;;;;;5015052;28;20041;-47
2022/07/24 10:40:01;;;;;;;5.82;2.35;;;26.20;99.90;;;;;;5002993;28;20077;-50
2022/07/24 10:42:29;;;;;;;5.43;2.17;;;26.60;1.00;;;;;;5002659;28;20050;-47
2022/07/24 10:45:13;;;;;;;4.00;2.22;;;27.20;1.00;;;;;;5003028;28;20034;-48
2022/07/24 10:47:39;;;;;;;7.72;2.70;;;27.00;99.90;;;;;;5015415;28;20041;-47
2022/07/24 10:50:05;;;;;;;6.55;2.60;;;27.10;99.90;;;;;;5003079;28;20784;-45
2022/07/24 10:52:33;;;;;;;7.20;2.97;;;26.80;99.90;;;;;;5002462;28;20042;-48
2022/07/24 10:55:31;;;;;;;7.20;2.70;;;26.50;88.60;;;;;;4990564;28;20042;-48
2022/07/24 10:57:58;;;;;;;6.50;2.13;;;26.50;86.80;;;;;;5001878;28;20104;-46
2022/07/24 11:00:37;;;;;;;6.13;2.20;;;27.10;99.90;;;;;;5002380;28;20046;-48
2022/07/24 11:03:05;;;;;;;5.47;2.30;;;27.10;14.50;;;;;;4984640;28;20410;-49
2022/07/24 11:05:38;;;;;;;11.25;2.47;;;27.20;99.90;;;;;;5002401;28;20052;-46
2022/07/24 11:08:17;;;;;;;4.63;2.45;;;27.00;99.90;;;;;;5001885;28;20048;-45
2022/07/24 11:10:52;;;;;;;4.15;2.28;;;26.90;99.90;;;;;;5001949;28;20053;-45
2022/07/24 11:13:32;;;;;;;3.88;2.13;;;26.90;99.90;;;;;;5006958;28;20045;-48
2022/07/24 11:16:11;;;;;;;5.27;2.00;;;27.10;99.90;;;;;;5010892;28;20068;-46
2022/07/24 11:18:37;;;;;;;6.63;2.60;;;27.10;99.90;;;;;;5003380;28;21043;-46
2022/07/24 11:21:04;;;;;;;4.50;2.15;;;27.00;99.90;;;;;;5002153;28;20048;-47
2022/07/24 11:23:30;;;;;;;4.55;2.10;;;26.80;99.90;;;;;;5014764;28;20421;-45
2022/07/24 11:26:35;;;;;;;5.80;2.60;;;26.70;99.90;;;;;;5001506;28;20034;-46
2022/07/24 11:29:32;;;;;;;6.85;2.10;;;26.40;99.90;;;;;;5001698;28;20125;-47
2022/07/24 11:32:04;;;;;;;5.93;2.13;;;26.50;99.90;;;;;;5001582;28;20140;-45
2022/07/24 11:34:31;;;;;;;7.97;2.50;;;27.20;99.90;;;;;;5001913;28;20406;-45
2022/07/24 11:36:58;;;;;;;6.50;2.40;;;26.70;99.90;;;;;;5001371;28;20046;-48
2022/07/24 11:39:36;;;;;;;5.45;1.90;;;27.00;99.90;;;;;;5001712;28;20095;-46
2022/07/24 11:42:10;;;;;;;5.03;2.10;;;27.20;99.90;;;;;;5001650;28;20396;-49
2022/07/24 11:44:41;;;;;;;5.05;2.08;;;27.10;99.90;;;;;;5001790;28;20077;-45
2022/07/24 11:47:13;;;;;;;7.70;2.50;;;27.20;99.90;;;;;;5001742;28;20049;-46
2022/07/24 11:49:47;;;;;;;4.43;1.90;;;27.30;99.90;;;;;;5001885;28;20085;-44
2022/07/24 11:52:27;;;;;;;3.58;1.80;;;27.60;99.90;;;;;;5001678;28;20061;-47
2022/07/24 11:54:56;;;;;;;3.90;2.30;;;27.60;97.60;;;;;;5001356;28;20112;-49
2022/07/24 11:57:28;;;;;;;6.70;2.38;;;27.40;53.80;;;;;;5008800;28;20037;-45
2022/07/24 11:59:54;;;;;;;6.35;2.03;;;27.60;49.20;;;;;;5003513;28;20115;-44
2022/07/24 12:02:23;;;;;;;4.97;2.10;;;27.50;19.30;;;;;;5000023;28;20097;-45
2022/07/24 12:04:50;;;;;;;5.72;2.03;;;27.60;17.80;;;;;;5005049;28;20077;-48
2022/07/24 12:07:24;;;;;;;5.82;2.30;;;27.40;1.00;;;;;;5001092;28;20053;-44
2022/07/24 12:09:53;;;;;;;8.90;2.78;;;27.70;1.00;;;;;;5000675;28;20238;-44
2022/07/24 12:12:22;;;;;;;8.43;2.20;;;27.60;1.00;;;;;;4998774;28;20069;-46
2022/07/24 12:15:00;;;;;;;5.15;2.28;;;27.50;1.00;;;;;;5001263;28;20121;-45
2022/07/24 12:17:26;;;;;;;4.70;2.10;;;27.50;1.00;;;;;;4982606;28;20087;-47
2022/07/24 12:19:55;;;;;;;5.03;2.22;;;27.40;1.00;;;;;;4998885;28;20268;-45
2022/07/24 12:22:22;;;;;;;8.98;2.20;;;27.10;1.00;;;;;;4997977;28;20236;-48
2022/07/24 12:24:49;;;;;;;5.18;2.30;;;27.30;1.00;;;;;;4994508;28;20643;-47
2022/07/24 12:27:36;;;;;;;4.85;2.22;;;27.50;1.00;;;;;;4999130;28;20060;-44
2022/07/24 12:30:04;;;;;;;4.53;2.15;;;27.40;1.00;;;;;;4999756;28;20065;-46
2022/07/24 12:32:33;;;;;;;5.72;1.75;;;27.40;1.00;;;;;;5000954;28;20326;-45
2022/07/24 12:34:58;;;;;;;7.20;1.88;;;27.50;1.00;;;;;;5000805;28;20387;-44
2022/07/24 12:37:24;;;;;;;6.40;2.05;;;27.50;99.90;;;;;;5000964;28;20100;-47
2022/07/24 12:39:52;;;;;;;6.97;2.10;;;27.60;1.00;;;;;;5000856;28;20407;-42
2022/07/24 12:42:31;;;;;;;4.45;1.92;;;27.40;99.90;;;;;;5000777;28;20050;-43
2022/07/24 12:45:09;;;;;;;5.25;1.80;;;27.50;1.00;;;;;;5000822;28;20422;-45
2022/07/24 12:48:13;;;;;;;5.30;2.22;;;27.70;99.90;;;;;;5000270;28;20136;-45